Time;durP1;ratioP1;P1;durP2;ratioP2;P2;SDS_P1;SDS_P2;PMS_P1;PMS_P2;Temp;Humidity;BMP_temperature;BMP_pressure;BME280_temperature;BME280_humidity;BME280_pressure;Samples;Min_cycle;Max_cycle;Signal;HPM_P1;HPM_P2
2022/10/31 00:01:36;;;;;;;9.38;4.45;;;17.50;99.90;;;;;;4125138;28;20463;-70
2022/10/31 00:03:37;;;;;;;7.90;4.82;;;17.50;99.90;;;;;;4129427;28;20041;-70
2022/10/31 00:05:42;;;;;;;8.40;4.88;;;17.60;99.90;;;;;;4128766;28;20537;-70
2022/10/31 00:07:42;;;;;;;5.68;4.40;;;17.60;99.90;;;;;;4128607;28;20493;-70
2022/10/31 00:09:43;;;;;;;9.25;4.65;;;17.60;99.90;;;;;;4127538;28;20081;-69
2022/10/31 00:11:44;;;;;;;8.80;4.75;;;17.60;99.90;;;;;;4126129;28;20065;-70
2022/10/31 00:13:44;;;;;;;11.27;5.57;;;17.60;99.90;;;;;;4129021;28;20038;-70
2022/10/31 00:15:45;;;;;;;8.48;5.05;;;17.60;99.90;;;;;;4127147;28;20543;-70
2022/10/31 00:17:45;;;;;;;8.13;4.43;;;17.60;99.90;;;;;;4126925;28;20642;-70
2022/10/31 00:19:46;;;;;;;8.70;4.45;;;17.60;99.90;;;;;;4126652;28;20394;-70
2022/10/31 00:21:46;;;;;;;10.50;4.75;;;17.60;99.90;;;;;;4125019;28;20496;-70
2022/10/31 00:23:47;;;;;;;9.98;5.05;;;17.60;99.90;;;;;;4123789;28;20190;-70
2022/10/31 00:25:48;;;;;;;7.63;4.43;;;17.60;99.90;;;;;;4121369;28;20070;-70
2022/10/31 00:27:48;;;;;;;10.82;5.68;;;17.60;99.90;;;;;;4122646;28;20054;-70
2022/10/31 00:29:49;;;;;;;8.90;4.70;;;17.60;99.90;;;;;;4125321;28;20041;-70
2022/10/31 00:31:50;;;;;;;7.57;4.82;;;17.60;99.90;;;;;;4122040;28;20066;-70
2022/10/31 00:33:50;;;;;;;8.30;4.80;;;17.60;99.90;;;;;;4124851;28;20385;-70
2022/10/31 00:35:51;;;;;;;10.77;4.90;;;17.60;99.90;;;;;;4124445;28;20420;-70
2022/10/31 00:37:52;;;;;;;11.05;5.18;;;17.60;99.90;;;;;;4126589;28;20034;-70
2022/10/31 00:39:52;;;;;;;7.07;4.60;;;17.60;99.90;;;;;;4122780;28;20050;-71
2022/10/31 00:41:53;;;;;;;10.52;4.95;;;17.60;99.90;;;;;;4123155;28;21211;-70
2022/10/31 00:43:54;;;;;;;8.48;4.90;;;17.60;99.90;;;;;;4123605;28;20030;-70
2022/10/31 00:45:54;;;;;;;8.27;4.82;;;17.60;99.90;;;;;;4124645;28;20026;-70
2022/10/31 00:47:55;;;;;;;9.30;4.28;;;17.60;99.90;;;;;;4122714;28;20113;-70
2022/10/31 00:49:55;;;;;;;7.75;4.95;;;17.60;99.90;;;;;;4123965;28;20053;-70
2022/10/31 00:51:56;;;;;;;10.73;5.18;;;17.60;99.90;;;;;;4121716;28;20061;-70
2022/10/31 00:53:56;;;;;;;9.15;4.47;;;17.60;99.90;;;;;;4122709;28;20038;-71
2022/10/31 00:55:57;;;;;;;7.43;4.47;;;17.60;99.90;;;;;;4121893;28;20034;-70
2022/10/31 00:57:57;;;;;;;14.10;5.05;;;17.60;99.90;;;;;;4120410;28;20038;-70
2022/10/31 00:59:58;;;;;;;8.27;4.82;;;17.60;99.90;;;;;;4122009;28;20456;-70
2022/10/31 01:01:58;;;;;;;10.75;5.03;;;17.60;99.90;;;;;;4122041;28;20043;-71
2022/10/31 01:03:59;;;;;;;7.95;4.97;;;17.50;99.90;;;;;;4120339;28;20046;-71
2022/10/31 01:06:09;;;;;;;7.07;5.13;;;17.50;99.90;;;;;;4124841;28;20050;-70
2022/10/31 01:08:09;;;;;;;8.85;4.82;;;17.50;99.90;;;;;;4124305;28;20053;-67
2022/10/31 01:10:11;;;;;;;9.73;5.22;;;17.50;99.90;;;;;;4124639;28;20035;-72
2022/10/31 01:12:11;;;;;;;7.78;4.90;;;17.50;99.90;;;;;;4126886;28;20043;-70
2022/10/31 01:14:12;;;;;;;9.82;4.72;;;17.50;99.90;;;;;;4125320;28;20068;-70
2022/10/31 01:16:15;;;;;;;10.75;4.72;;;17.40;99.90;;;;;;4122469;28;20403;-69
2022/10/31 01:18:16;;;;;;;13.00;5.90;;;17.40;99.90;;;;;;4123244;28;20555;-70
2022/10/31 01:20:17;;;;;;;11.73;5.75;;;17.40;99.90;;;;;;4122211;28;20216;-70
2022/10/31 01:22:17;;;;;;;10.15;5.40;;;17.30;99.90;;;;;;4123066;28;20060;-70
2022/10/31 01:24:18;;;;;;;11.82;6.28;;;17.30;99.90;;;;;;4123971;28;20046;-69
2022/10/31 01:26:21;;;;;;;11.75;5.88;;;17.30;99.90;;;;;;4119413;28;20042;-70
2022/10/31 01:28:22;;;;;;;10.93;6.03;;;17.30;99.90;;;;;;4120497;28;20035;-70
2022/10/31 01:30:22;;;;;;;12.10;6.22;;;17.20;99.90;;;;;;4123135;28;20035;-70
2022/10/31 01:32:23;;;;;;;7.50;5.07;;;17.20;99.90;;;;;;4123990;28;20429;-70
2022/10/31 01:34:24;;;;;;;8.40;4.82;;;17.20;99.90;;;;;;4122020;28;20504;-70
2022/10/31 01:36:33;;;;;;;8.48;5.57;;;17.20;99.90;;;;;;4120601;28;20512;-70
2022/10/31 01:38:33;;;;;;;7.30;4.88;;;17.10;99.90;;;;;;4128916;28;20034;-70
2022/10/31 01:40:34;;;;;;;5.97;4.30;;;17.10;99.90;;;;;;4126260;28;20725;-70
2022/10/31 01:42:35;;;;;;;8.48;5.43;;;17.10;99.90;;;;;;4129546;28;20493;-70
2022/10/31 01:44:35;;;;;;;8.45;5.55;;;17.10;99.90;;;;;;4128279;28;20031;-70
2022/10/31 01:46:58;;;;;;;9.68;5.20;;;17.10;99.90;;;;;;4122789;28;20030;-70
2022/10/31 01:49:03;;;;;;;;;;;17.10;99.90;;;;;;4126096;28;20037;-70
2022/10/31 01:51:05;;;;;;;7.80;5.43;;;17.00;99.90;;;;;;4124954;28;19909;-71
2022/10/31 01:53:08;;;;;;;8.50;5.50;;;17.00;99.90;;;;;;4126041;28;20085;-70
2022/10/31 01:55:20;;;;;;;10.30;6.10;;;17.00;99.90;;;;;;4125054;28;20037;-71
2022/10/31 01:57:21;;;;;;;7.68;5.47;;;17.00;99.90;;;;;;4126981;28;20034;-70
2022/10/31 01:59:25;;;;;;;10.63;6.55;;;16.90;99.90;;;;;;4126190;28;20125;-70
2022/10/31 02:01:27;;;;;;;7.88;5.55;;;16.90;99.90;;;;;;4126274;28;20035;-70
2022/10/31 02:03:29;;;;;;;11.80;6.60;;;16.90;99.90;;;;;;4126256;28;20446;-70
2022/10/31 02:05:30;;;;;;;8.20;5.30;;;16.90;99.90;;;;;;4123893;28;20034;-70
2022/10/31 02:07:54;;;;;;;9.32;5.40;;;16.90;99.90;;;;;;4118485;28;20046;-70
2022/10/31 02:09:56;;;;;;;9.35;5.75;;;16.80;99.90;;;;;;4120270;28;20034;-70
2022/10/31 02:11:59;;;;;;;8.15;4.80;;;16.80;99.90;;;;;;4122941;28;20034;-70
2022/10/31 02:14:01;;;;;;;6.85;5.13;;;16.80;99.90;;;;;;4123642;28;20050;-70
2022/10/31 02:16:01;;;;;;;6.20;4.35;;;16.70;99.90;;;;;;4118373;28;20375;-70
2022/10/31 02:18:03;;;;;;;10.88;4.25;;;16.60;99.90;;;;;;4125334;28;20040;-70
2022/10/31 02:20:14;;;;;;;7.60;4.72;;;16.60;99.90;;;;;;4120071;28;20034;-71
2022/10/31 02:22:36;;;;;;;8.00;4.78;;;16.50;99.90;;;;;;4123652;28;20037;-69
2022/10/31 02:24:55;;;;;;;9.18;5.70;;;16.50;99.90;;;;;;4123050;28;20037;-70
2022/10/31 02:27:33;;;;;;;11.60;5.07;;;16.50;99.90;;;;;;4122240;28;20045;-70
2022/10/31 02:29:58;;;;;;;7.55;5.18;;;16.50;99.90;;;;;;4120250;28;20089;-70
2022/10/31 02:32:12;;;;;;;8.48;5.07;;;16.40;99.90;;;;;;4123029;28;20034;-70
2022/10/31 02:34:25;;;;;;;6.95;4.82;;;16.40;99.90;;;;;;4122928;28;20545;-70
2022/10/31 02:36:36;;;;;;;9.13;5.55;;;16.40;99.90;;;;;;4119402;28;20027;-70
2022/10/31 02:39:00;;;;;;;7.18;5.20;;;16.40;99.90;;;;;;4124042;28;20454;-70
2022/10/31 02:41:23;;;;;;;9.15;5.20;;;16.40;99.90;;;;;;4122102;28;20037;-70
2022/10/31 02:43:35;;;;;;;11.15;6.00;;;16.40;99.90;;;;;;4122081;28;20030;-70
2022/10/31 02:45:44;;;;;;;11.93;6.43;;;16.40;99.90;;;;;;4121086;28;20485;-70
2022/10/31 02:47:48;;;;;;;9.38;5.70;;;16.40;99.90;;;;;;4124399;28;20061;-69
2022/10/31 02:49:48;;;;;;;6.57;4.60;;;16.30;99.90;;;;;;4126144;28;20108;-70
2022/10/31 02:51:50;;;;;;;6.55;4.70;;;16.30;99.90;;;;;;4122200;28;20054;-70
2022/10/31 02:53:50;;;;;;;8.93;5.47;;;16.30;99.90;;;;;;4121987;28;20060;-70
2022/10/31 02:55:58;;;;;;;8.05;5.03;;;16.30;99.90;;;;;;4119069;28;20054;-70
2022/10/31 02:58:04;;;;;;;7.10;4.93;;;16.20;99.90;;;;;;4124752;28;20034;-70
2022/10/31 03:00:07;;;;;;;8.23;4.95;;;16.20;99.90;;;;;;4126578;28;20043;-71
2022/10/31 03:02:49;;;;;;;8.00;5.05;;;16.10;99.90;;;;;;4124907;28;20461;-70
2022/10/31 03:05:15;;;;;;;10.18;5.20;;;16.10;99.90;;;;;;4121589;28;20114;-70
2022/10/31 03:07:57;;;;;;;7.03;4.97;;;16.00;99.90;;;;;;4126316;28;20501;-69
2022/10/31 03:10:09;;;;;;;8.13;4.75;;;16.00;99.90;;;;;;4090038;28;20498;-70
2022/10/31 03:12:44;;;;;;;8.50;5.18;;;16.00;99.90;;;;;;4125169;28;20030;-70
2022/10/31 03:15:00;;;;;;;6.75;4.80;;;15.90;99.90;;;;;;4121622;28;20038;-69
2022/10/31 03:17:07;;;;;;;7.38;4.75;;;16.00;99.90;;;;;;4124649;28;20166;-70
2022/10/31 03:19:17;;;;;;;6.03;4.57;;;16.00;99.90;;;;;;4125064;28;20043;-70
2022/10/31 03:21:29;;;;;;;9.73;5.60;;;15.90;99.90;;;;;;4124656;28;20048;-69
2022/10/31 03:23:31;;;;;;;11.32;5.07;;;15.90;99.90;;;;;;4125431;28;20097;-70
2022/10/31 03:25:35;;;;;;;9.07;5.53;;;15.90;99.90;;;;;;4122455;28;20042;-70
2022/10/31 03:27:37;;;;;;;8.80;4.78;;;16.00;99.90;;;;;;4124618;28;20204;-70
2022/10/31 03:29:40;;;;;;;11.75;5.03;;;15.90;99.90;;;;;;4126463;28;20046;-70
2022/10/31 03:31:52;;;;;;;8.85;5.30;;;15.90;99.90;;;;;;4122799;28;20049;-68
2022/10/31 03:33:54;;;;;;;9.10;5.32;;;15.90;99.90;;;;;;4127721;28;20089;-70
2022/10/31 03:35:57;;;;;;;7.45;4.93;;;15.90;99.90;;;;;;4126649;28;20440;-69
2022/10/31 03:38:00;;;;;;;12.75;6.00;;;15.90;99.90;;;;;;4125031;28;20971;-70
2022/10/31 03:40:03;;;;;;;11.10;5.68;;;15.90;99.90;;;;;;4127952;28;20088;-70
2022/10/31 03:42:24;;;;;;;10.02;5.40;;;15.90;99.90;;;;;;4125213;28;20031;-70
2022/10/31 03:44:27;;;;;;;9.98;5.88;;;15.90;99.90;;;;;;4126907;28;20483;-70
2022/10/31 03:46:28;;;;;;;7.70;5.45;;;15.90;99.90;;;;;;4128990;28;20400;-70
2022/10/31 03:48:29;;;;;;;10.10;5.97;;;15.90;99.90;;;;;;4126402;28;20031;-70
2022/10/31 03:50:45;;;;;;;7.60;5.32;;;15.80;99.90;;;;;;4125568;28;20121;-70
2022/10/31 03:52:56;;;;;;;8.23;5.50;;;15.80;99.90;;;;;;4127370;28;20482;-69
2022/10/31 03:55:05;;;;;;;10.73;6.20;;;15.80;99.90;;;;;;4127992;28;20092;-70
2022/10/31 03:57:24;;;;;;;7.80;5.85;;;15.80;99.90;;;;;;4123918;28;20069;-70
2022/10/31 03:59:36;;;;;;;8.38;5.72;;;15.80;99.90;;;;;;4123011;28;20031;-70
2022/10/31 04:01:40;;;;;;;8.15;5.70;;;15.80;99.90;;;;;;4123395;28;20102;-70
2022/10/31 04:03:42;;;;;;;10.07;5.93;;;15.80;99.90;;;;;;4117200;28;20101;-70
2022/10/31 04:05:45;;;;;;;10.30;6.63;;;15.70;99.90;;;;;;4123644;28;20040;-69
2022/10/31 04:07:49;;;;;;;8.55;5.97;;;15.70;99.90;;;;;;4125931;28;20038;-69
2022/10/31 04:09:51;;;;;;;8.43;5.70;;;15.70;99.90;;;;;;4123724;28;20031;-70
2022/10/31 04:11:56;;;;;;;8.50;4.97;;;15.60;99.90;;;;;;4122958;28;20054;-70
2022/10/31 04:13:57;;;;;;;8.20;4.75;;;15.60;99.90;;;;;;4126752;28;20045;-70
2022/10/31 04:15:58;;;;;;;8.43;5.40;;;15.40;99.90;;;;;;4123616;28;20074;-71
2022/10/31 04:18:01;;;;;;;12.90;6.63;;;15.40;99.90;;;;;;4123432;28;20053;-70
2022/10/31 04:20:01;;;;;;;10.93;6.30;;;15.10;99.90;;;;;;4127320;28;20043;-70
2022/10/31 04:22:02;;;;;;;11.68;6.82;;;15.00;99.90;;;;;;4124995;28;20043;-70
2022/10/31 04:24:03;;;;;;;11.40;6.35;;;15.00;99.90;;;;;;4129984;28;20064;-70
2022/10/31 04:26:03;;;;;;;10.88;6.75;;;15.00;99.90;;;;;;4129051;28;20046;-70
2022/10/31 04:28:04;;;;;;;12.77;6.90;;;15.00;99.90;;;;;;4128903;28;20057;-70
2022/10/31 04:30:05;;;;;;;11.43;5.65;;;15.10;99.90;;;;;;4127698;28;20034;-70
2022/10/31 04:32:06;;;;;;;9.32;5.85;;;15.10;99.90;;;;;;4123607;28;20113;-70
2022/10/31 04:34:07;;;;;;;6.97;5.38;;;15.10;99.90;;;;;;4129926;28;20393;-70
2022/10/31 04:36:08;;;;;;;9.02;5.60;;;15.10;99.90;;;;;;4128789;28;20045;-70
2022/10/31 04:38:08;;;;;;;8.50;5.40;;;15.10;99.90;;;;;;4127228;28;20042;-70
2022/10/31 04:40:10;;;;;;;10.98;5.75;;;15.10;99.90;;;;;;4127089;28;20054;-71
2022/10/31 04:42:10;;;;;;;12.98;6.38;;;15.20;99.90;;;;;;4127762;28;20101;-67
2022/10/31 04:44:11;;;;;;;7.57;5.32;;;15.10;99.90;;;;;;4129886;28;20031;-69
2022/10/31 04:46:11;;;;;;;11.63;5.57;;;15.20;99.90;;;;;;4127354;28;20042;-70
2022/10/31 04:48:12;;;;;;;9.18;5.88;;;15.20;99.90;;;;;;4123525;28;20038;-69
2022/10/31 04:50:12;;;;;;;13.25;6.72;;;15.20;99.90;;;;;;4126585;28;20563;-69
2022/10/31 04:52:13;;;;;;;8.23;5.85;;;15.30;99.90;;;;;;4128828;28;20043;-68
2022/10/31 04:54:14;;;;;;;8.48;5.38;;;15.30;99.90;;;;;;4129342;28;20092;-69
2022/10/31 04:56:14;;;;;;;8.55;5.93;;;15.30;99.90;;;;;;4128244;28;20038;-70
2022/10/31 04:58:15;;;;;;;11.63;5.85;;;15.30;99.90;;;;;;4128288;28;20094;-70
2022/10/31 05:00:18;;;;;;;8.50;5.50;;;15.30;99.90;;;;;;4123933;28;20074;-70
2022/10/31 05:02:18;;;;;;;5.50;4.53;;;15.30;99.90;;;;;;4127687;28;20065;-70
2022/10/31 05:04:19;;;;;;;7.22;4.70;;;15.30;99.90;;;;;;4125149;28;20037;-70
2022/10/31 05:06:19;;;;;;;8.50;5.78;;;15.20;99.90;;;;;;4123011;28;20049;-70
2022/10/31 05:08:20;;;;;;;9.63;5.90;;;15.10;99.90;;;;;;4126893;28;20125;-70
2022/10/31 05:10:23;;;;;;;8.73;5.57;;;15.10;99.90;;;;;;4124592;28;20122;-70
2022/10/31 05:12:23;;;;;;;8.18;5.20;;;15.00;99.90;;;;;;4124989;28;20129;-70
2022/10/31 05:14:24;;;;;;;10.73;5.90;;;15.10;99.90;;;;;;4123114;28;20068;-70
2022/10/31 05:16:24;;;;;;;8.15;5.50;;;15.00;99.90;;;;;;4125062;28;20408;-70
2022/10/31 05:18:25;;;;;;;7.28;5.07;;;15.10;99.90;;;;;;4122652;28;20035;-70
2022/10/31 05:20:28;;;;;;;8.20;5.78;;;15.10;99.90;;;;;;4120627;28;20042;-70
2022/10/31 05:22:29;;;;;;;10.00;5.63;;;15.10;99.90;;;;;;4125479;28;20171;-70
2022/10/31 05:24:29;;;;;;;8.63;5.97;;;15.10;99.90;;;;;;4121783;28;20039;-70
2022/10/31 05:26:30;;;;;;;8.77;5.95;;;15.10;99.90;;;;;;4124809;28;20191;-70
2022/10/31 05:28:30;;;;;;;9.52;5.25;;;15.10;99.90;;;;;;4120881;28;20033;-70
2022/10/31 05:30:32;;;;;;;14.73;5.75;;;15.10;99.90;;;;;;4123711;28;20449;-70
2022/10/31 05:32:46;;;;;;;6.30;4.93;;;15.10;99.90;;;;;;4124283;28;20026;-70
2022/10/31 05:34:47;;;;;;;9.10;5.63;;;15.10;99.90;;;;;;4121944;28;20049;-70
2022/10/31 05:36:47;;;;;;;9.32;5.65;;;15.10;99.90;;;;;;4122560;28;20474;-70
2022/10/31 05:38:48;;;;;;;11.23;5.45;;;15.10;99.90;;;;;;4122464;28;20429;-70
2022/10/31 05:40:48;;;;;;;10.65;6.90;;;15.10;99.90;;;;;;4122518;28;20371;-70
2022/10/31 05:42:54;;;;;;;8.80;5.53;;;15.10;99.90;;;;;;4128674;28;20039;-70
2022/10/31 05:44:54;;;;;;;10.25;5.70;;;15.10;99.90;;;;;;4128441;28;20187;-70
2022/10/31 05:46:55;;;;;;;10.18;6.03;;;15.10;99.90;;;;;;4126150;28;20151;-70
2022/10/31 05:48:55;;;;;;;10.32;6.03;;;15.10;99.90;;;;;;4123838;28;20043;-69
2022/10/31 05:50:56;;;;;;;9.50;5.60;;;15.10;99.90;;;;;;4121460;28;20031;-70
2022/10/31 05:52:58;;;;;;;7.85;4.88;;;15.10;99.90;;;;;;4131893;28;20029;-70
2022/10/31 05:54:58;;;;;;;9.97;6.17;;;15.10;99.90;;;;;;4125985;28;20031;-70
2022/10/31 05:56:59;;;;;;;8.20;5.38;;;15.10;99.90;;;;;;4127912;28;20481;-70
2022/10/31 05:58:59;;;;;;;6.72;5.30;;;15.10;99.90;;;;;;4127674;28;20058;-70
2022/10/31 06:01:00;;;;;;;8.52;5.43;;;15.00;99.90;;;;;;4125625;28;20122;-70
2022/10/31 06:03:03;;;;;;;6.03;4.65;;;15.00;99.90;;;;;;4125470;28;20041;-70
2022/10/31 06:05:03;;;;;;;7.38;4.32;;;15.00;99.90;;;;;;4127571;28;20041;-69
2022/10/31 06:07:04;;;;;;;7.85;5.20;;;15.00;99.90;;;;;;4126481;28;20038;-69
2022/10/31 06:09:05;;;;;;;11.30;5.88;;;15.00;99.90;;;;;;4125377;28;20385;-69
2022/10/31 06:11:05;;;;;;;6.47;5.13;;;15.00;99.90;;;;;;4121464;28;20497;-69
2022/10/31 06:13:06;;;;;;;7.97;5.85;;;15.00;99.90;;;;;;4126443;28;20125;-70
2022/10/31 06:15:08;;;;;;;7.30;5.32;;;15.00;99.90;;;;;;4124139;28;20065;-72
2022/10/31 06:17:08;;;;;;;5.22;4.00;;;14.90;99.90;;;;;;4127570;28;20133;-74
2022/10/31 06:19:09;;;;;;;5.72;4.07;;;15.00;99.90;;;;;;4127084;28;20508;-74
2022/10/31 06:21:09;;;;;;;5.35;3.88;;;15.00;99.90;;;;;;4122456;28;20389;-73
2022/10/31 06:23:10;;;;;;;3.35;2.72;;;15.00;99.90;;;;;;4122868;28;20038;-74
2022/10/31 06:25:11;;;;;;;4.60;2.90;;;15.00;99.90;;;;;;4126757;28;20042;-74
2022/10/31 06:27:11;;;;;;;5.57;3.30;;;14.90;99.90;;;;;;4121664;28;20054;-74
2022/10/31 06:29:12;;;;;;;5.20;4.07;;;14.90;99.90;;;;;;4121628;28;20039;-73
2022/10/31 06:31:13;;;;;;;6.15;4.03;;;14.90;99.90;;;;;;4121832;28;20030;-72
2022/10/31 06:33:13;;;;;;;4.82;3.40;;;14.90;99.90;;;;;;4127049;28;20069;-72
2022/10/31 06:35:14;;;;;;;6.72;4.38;;;14.90;99.90;;;;;;4130663;28;20084;-72
2022/10/31 06:37:15;;;;;;;6.03;4.10;;;14.90;99.90;;;;;;4129462;28;20433;-72
2022/10/31 06:39:16;;;;;;;8.40;5.30;;;14.80;99.90;;;;;;4126571;28;20046;-73
2022/10/31 06:41:16;;;;;;;6.68;4.80;;;14.90;99.90;;;;;;4129530;28;20038;-72
2022/10/31 06:43:17;;;;;;;6.53;4.47;;;14.90;99.90;;;;;;4133042;28;20030;-73
2022/10/31 06:45:17;;;;;;;7.32;4.82;;;14.80;99.90;;;;;;4132227;28;20140;-73
2022/10/31 06:47:18;;;;;;;7.68;5.35;;;14.90;99.90;;;;;;4135228;28;20038;-73
2022/10/31 06:49:18;;;;;;;6.43;4.80;;;14.90;99.90;;;;;;4126881;28;20073;-73
2022/10/31 06:51:19;;;;;;;6.93;5.47;;;14.90;99.90;;;;;;4130536;28;20062;-72
2022/10/31 06:53:20;;;;;;;9.52;5.10;;;14.90;99.90;;;;;;4132722;28;20030;-73
2022/10/31 06:55:22;;;;;;;8.38;6.13;;;14.80;99.90;;;;;;4127952;28;20477;-74
2022/10/31 06:57:23;;;;;;;9.43;5.75;;;14.80;99.90;;;;;;4133407;28;20088;-72
2022/10/31 06:59:24;;;;;;;8.23;4.97;;;14.80;99.90;;;;;;4129003;28;20121;-72
2022/10/31 07:01:24;;;;;;;7.95;5.18;;;14.90;99.90;;;;;;4128638;28;20042;-73
2022/10/31 07:03:25;;;;;;;7.65;4.88;;;14.80;99.90;;;;;;4131731;28;20512;-72
2022/10/31 07:05:27;;;;;;;7.80;5.82;;;14.90;99.90;;;;;;4132640;28;20536;-72
2022/10/31 07:07:27;;;;;;;6.43;4.80;;;14.90;99.90;;;;;;4126972;28;20042;-72
2022/10/31 07:09:28;;;;;;;7.47;5.05;;;14.90;99.90;;;;;;4132347;28;20089;-72
2022/10/31 07:11:28;;;;;;;7.65;5.43;;;14.90;99.90;;;;;;4131927;28;20062;-72
2022/10/31 07:13:29;;;;;;;8.93;6.05;;;14.90;99.90;;;;;;4133087;28;20113;-72
2022/10/31 07:15:33;;;;;;;6.72;5.25;;;14.90;99.90;;;;;;4128104;28;20520;-72
2022/10/31 07:17:34;;;;;;;8.13;5.57;;;15.00;99.90;;;;;;4130354;28;20113;-72
2022/10/31 07:19:34;;;;;;;8.32;5.88;;;15.00;99.90;;;;;;4131177;28;21038;-72
2022/10/31 07:21:35;;;;;;;7.75;4.68;;;15.00;99.90;;;;;;4126130;28;20428;-72
2022/10/31 07:23:37;;;;;;;9.50;5.38;;;15.00;99.90;;;;;;4124787;28;20054;-73
2022/10/31 07:25:41;;;;;;;8.88;5.30;;;14.90;99.90;;;;;;4127115;28;20064;-72
2022/10/31 07:27:42;;;;;;;9.68;5.15;;;14.90;99.90;;;;;;4130737;28;20529;-65
2022/10/31 07:29:43;;;;;;;7.65;5.10;;;14.90;99.90;;;;;;4126369;28;20089;-65
2022/10/31 07:31:46;;;;;;;6.85;4.20;;;14.90;99.90;;;;;;4132016;28;20026;-65
2022/10/31 07:33:46;;;;;;;7.93;4.95;;;14.90;99.90;;;;;;4131494;28;20496;-65
2022/10/31 07:35:47;;;;;;;9.30;5.47;;;14.90;99.90;;;;;;4126236;28;20113;-65
2022/10/31 07:37:48;;;;;;;7.43;4.90;;;14.90;99.90;;;;;;4128852;28;20056;-65
2022/10/31 07:39:49;;;;;;;9.63;5.00;;;15.00;99.90;;;;;;4129899;28;20030;-65
2022/10/31 07:41:49;;;;;;;8.82;5.63;;;15.00;99.90;;;;;;4127561;28;20041;-65
2022/10/31 07:43:50;;;;;;;7.20;4.75;;;14.90;99.90;;;;;;4127265;28;20054;-65
2022/10/31 07:45:52;;;;;;;8.57;5.03;;;14.90;99.90;;;;;;4124187;28;20072;-65
2022/10/31 07:47:53;;;;;;;6.97;5.07;;;15.00;99.90;;;;;;4116962;28;20133;-65
2022/10/31 07:49:53;;;;;;;10.13;4.70;;;15.00;99.90;;;;;;4123156;28;20081;-65
2022/10/31 07:51:55;;;;;;;7.68;4.80;;;15.00;99.90;;;;;;4125200;28;20065;-65
2022/10/31 07:53:55;;;;;;;7.80;4.93;;;15.00;99.90;;;;;;4121997;28;20489;-65
2022/10/31 07:55:56;;;;;;;8.10;4.95;;;15.10;99.90;;;;;;4122446;28;20130;-65
2022/10/31 07:58:04;;;;;;;7.65;5.00;;;15.10;99.90;;;;;;4124546;28;20394;-65
2022/10/31 08:00:08;;;;;;;7.18;4.80;;;15.20;99.90;;;;;;4126955;28;20437;-65
2022/10/31 08:02:08;;;;;;;6.32;4.63;;;15.20;99.90;;;;;;4127435;28;20397;-65
2022/10/31 08:04:09;;;;;;;6.85;4.93;;;15.20;99.90;;;;;;4129637;28;20080;-65
2022/10/31 08:06:09;;;;;;;7.60;4.82;;;15.20;99.90;;;;;;4124057;28;20030;-65
2022/10/31 08:08:10;;;;;;;7.43;5.30;;;15.30;99.90;;;;;;4128337;28;20050;-65
2022/10/31 08:10:10;;;;;;;7.35;5.15;;;15.30;99.90;;;;;;4126379;28;20034;-65
2022/10/31 08:12:11;;;;;;;6.65;4.88;;;15.40;99.90;;;;;;4129356;28;20038;-66
2022/10/31 08:14:15;;;;;;;8.02;5.55;;;15.40;99.90;;;;;;4100062;28;20041;-64
2022/10/31 08:16:18;;;;;;;9.65;5.40;;;15.50;99.90;;;;;;4059074;28;20047;-65
2022/10/31 08:18:31;;;;;;;9.05;5.43;;;15.50;99.90;;;;;;4059293;28;20046;-65
2022/10/31 08:20:52;;;;;;;14.13;5.22;;;15.60;99.90;;;;;;4044256;28;20115;-64
2022/10/31 08:23:04;;;;;;;7.15;5.22;;;15.70;99.90;;;;;;4089140;28;20030;-64
2022/10/31 08:25:39;;;;;;;7.38;5.25;;;15.70;99.90;;;;;;4090352;28;20129;-64
2022/10/31 08:27:56;;;;;;;7.70;5.25;;;15.70;99.90;;;;;;4071192;28;20038;-65
2022/10/31 08:29:58;;;;;;;9.25;5.38;;;15.80;99.90;;;;;;4083407;28;20165;-64
2022/10/31 08:31:58;;;;;;;9.38;4.78;;;15.80;99.90;;;;;;4125006;28;20099;-65
2022/10/31 08:33:59;;;;;;;11.15;6.20;;;15.90;99.90;;;;;;4124622;28;20030;-64
2022/10/31 08:36:00;;;;;;;10.52;5.85;;;15.90;99.90;;;;;;4126535;28;20084;-64
2022/10/31 08:38:01;;;;;;;10.02;6.30;;;15.80;99.90;;;;;;4124098;28;20038;-64
2022/10/31 08:40:02;;;;;;;8.63;5.63;;;15.80;99.90;;;;;;4125635;28;20436;-67
2022/10/31 08:42:03;;;;;;;10.00;6.32;;;15.90;99.90;;;;;;4127538;28;20035;-64
2022/10/31 08:44:03;;;;;;;11.70;6.85;;;15.80;99.90;;;;;;4127497;28;20042;-64
2022/10/31 08:46:04;;;;;;;11.57;6.57;;;15.80;99.90;;;;;;4124052;28;20113;-64
2022/10/31 08:48:12;;;;;;;9.65;5.43;;;15.80;99.90;;;;;;4125806;28;20061;-64
2022/10/31 08:50:13;;;;;;;10.35;5.55;;;16.00;99.90;;;;;;4123199;28;20121;-64
2022/10/31 08:52:14;;;;;;;8.45;6.05;;;16.10;99.90;;;;;;4122895;28;20046;-68
2022/10/31 08:54:15;;;;;;;13.02;6.15;;;16.20;99.90;;;;;;4123619;28;20038;-65
2022/10/31 08:56:16;;;;;;;12.40;5.85;;;16.20;99.90;;;;;;4121470;28;20057;-65
2022/10/31 08:58:18;;;;;;;11.38;6.07;;;16.40;99.90;;;;;;4123907;28;20046;-65
2022/10/31 09:00:19;;;;;;;15.32;6.80;;;16.40;99.90;;;;;;4124523;28;20101;-65
2022/10/31 09:02:20;;;;;;;13.30;6.72;;;16.50;99.90;;;;;;4122270;28;20492;-65
2022/10/31 09:04:20;;;;;;;14.18;6.72;;;16.60;99.90;;;;;;4122346;28;20138;-65
2022/10/31 09:06:21;;;;;;;12.55;7.18;;;16.70;99.90;;;;;;4125748;28;20393;-64
2022/10/31 09:08:22;;;;;;;16.02;8.52;;;16.80;99.90;;;;;;4127297;28;20042;-64
2022/10/31 09:10:23;;;;;;;13.88;7.93;;;16.80;99.90;;;;;;4123620;28;20038;-64
2022/10/31 09:12:24;;;;;;;14.65;7.32;;;16.90;99.90;;;;;;4143428;28;20558;-64
2022/10/31 09:14:24;;;;;;;13.60;8.95;;;16.90;99.90;;;;;;4124602;28;20129;-64
2022/10/31 09:16:25;;;;;;;22.02;9.02;;;17.00;99.90;;;;;;4123099;28;20026;-64
2022/10/31 09:18:27;;;;;;;14.73;8.07;;;17.00;99.90;;;;;;4124778;28;20042;-65
2022/10/31 09:20:30;;;;;;;17.13;8.23;;;17.00;99.90;;;;;;4139965;28;20605;-64
2022/10/31 09:22:30;;;;;;;18.45;8.57;;;17.00;99.90;;;;;;4127390;28;20165;-65
2022/10/31 09:24:31;;;;;;;18.30;8.38;;;17.00;99.90;;;;;;4121302;28;20421;-64
2022/10/31 09:26:33;;;;;;;16.20;7.82;;;17.00;99.90;;;;;;4125251;28;20375;-65
2022/10/31 09:28:33;;;;;;;19.23;8.63;;;17.00;99.90;;;;;;4122942;28;20116;-65
2022/10/31 09:30:35;;;;;;;18.27;8.70;;;17.00;99.90;;;;;;4121719;28;20030;-64
2022/10/31 09:32:36;;;;;;;13.70;7.60;;;16.90;99.90;;;;;;4123123;28;20081;-64
2022/10/31 09:34:36;;;;;;;11.48;6.90;;;16.90;99.90;;;;;;4122055;28;20552;-64
2022/10/31 09:36:40;;;;;;;13.55;7.85;;;17.00;99.90;;;;;;4123553;28;20126;-64
2022/10/31 09:38:40;;;;;;;17.48;9.00;;;16.90;99.90;;;;;;4122884;28;20057;-64
2022/10/31 09:41:06;;;;;;;16.75;9.00;;;16.90;99.90;;;;;;4121184;28;20023;-64
2022/10/31 09:43:44;;;;;;;13.15;7.93;;;16.90;99.90;;;;;;4119731;28;20034;-64
2022/10/31 09:45:59;;;;;;;16.45;8.57;;;16.80;99.90;;;;;;4123239;28;20045;-66
2022/10/31 09:48:08;;;;;;;22.80;8.00;;;16.80;99.90;;;;;;4119260;28;20367;-64
2022/10/31 09:50:23;;;;;;;14.80;9.77;;;16.80;99.90;;;;;;4124146;28;20474;-65
2022/10/31 09:52:30;;;;;;;15.43;8.23;;;16.80;99.90;;;;;;4122061;28;20152;-65
2022/10/31 09:54:47;;;;;;;13.43;7.82;;;16.80;99.90;;;;;;4138211;28;20393;-64
2022/10/31 09:56:48;;;;;;;12.70;8.10;;;16.80;99.90;;;;;;4122609;28;20165;-64
2022/10/31 09:58:53;;;;;;;14.95;7.70;;;16.80;99.90;;;;;;4121994;28;20559;-65
2022/10/31 10:00:58;;;;;;;11.48;7.90;;;16.80;99.90;;;;;;4123692;28;20027;-64
2022/10/31 10:03:13;;;;;;;20.33;10.30;;;16.90;99.90;;;;;;4122973;28;20057;-64
2022/10/31 10:05:37;;;;;;;17.23;8.70;;;16.70;99.90;;;;;;4122029;28;20035;-64
2022/10/31 10:07:55;;;;;;;15.30;9.70;;;16.70;99.90;;;;;;4089247;28;20100;-64
2022/10/31 10:09:56;;;;;;;19.52;10.23;;;16.80;99.90;;;;;;4137599;28;20038;-64
2022/10/31 10:12:27;;;;;;;18.27;9.88;;;16.70;99.90;;;;;;4123160;28;20030;-64
2022/10/31 10:14:52;;;;;;;17.77;9.05;;;16.70;99.90;;;;;;4121278;28;20187;-64
2022/10/31 10:17:34;;;;;;;22.30;10.38;;;16.80;99.90;;;;;;4121408;28;20097;-64
2022/10/31 10:19:47;;;;;;;14.60;8.25;;;16.90;99.90;;;;;;4120391;28;20158;-64
2022/10/31 10:21:57;;;;;;;19.80;9.98;;;16.90;99.90;;;;;;4121373;28;20121;-65
2022/10/31 10:24:11;;;;;;;13.93;8.75;;;17.00;99.90;;;;;;4123850;28;20090;-64
2022/10/31 10:26:20;;;;;;;17.63;9.48;;;17.00;99.90;;;;;;4121351;28;20343;-63
2022/10/31 10:28:28;;;;;;;18.58;10.88;;;17.10;99.90;;;;;;4119140;28;20046;-65
2022/10/31 10:30:39;;;;;;;16.40;10.13;;;17.10;99.90;;;;;;4137010;28;20456;-64
2022/10/31 10:32:58;;;;;;;20.08;10.88;;;17.20;99.90;;;;;;4135540;28;20057;-64
2022/10/31 10:35:11;;;;;;;24.98;12.40;;;17.20;99.90;;;;;;4122637;28;20042;-65
2022/10/31 10:37:19;;;;;;;;;;;17.20;99.90;;;;;;4120115;28;20126;-64
2022/10/31 10:39:25;;;;;;;19.80;10.48;;;17.20;99.90;;;;;;4121747;28;19909;-66
2022/10/31 10:41:32;;;;;;;19.58;9.77;;;17.30;99.90;;;;;;4121078;28;20039;-64
2022/10/31 10:43:38;;;;;;;20.83;11.15;;;17.30;99.90;;;;;;4123352;28;20050;-64
2022/10/31 10:48:22;;;;;;;24.48;11.02;;;17.30;99.90;;;;;;4120684;28;20039;-64